createdAt,value
2023-05-11T00:01:39.061Z,736.8
2023-05-11T00:03:22.758Z,737.1
2023-05-11T00:05:06.468Z,737.7
2023-05-11T00:06:50.159Z,735.1
2023-05-11T00:08:33.865Z,737.9
2023-05-11T00:10:17.564Z,738.1
2023-05-11T00:12:01.256Z,739.7
2023-05-11T00:13:44.965Z,739.8
2023-05-11T00:15:28.681Z,741.1
2023-05-11T00:17:12.368Z,738.7
2023-05-11T00:18:56.079Z,735.1
2023-05-11T00:20:39.777Z,733.1
2023-05-11T00:22:23.473Z,731.3
2023-05-11T00:24:07.177Z,731.2
2023-05-11T00:25:50.870Z,732
2023-05-11T00:27:34.573Z,732
2023-05-11T00:29:18.273Z,729.2
2023-05-11T00:31:01.982Z,732.6
2023-05-11T00:32:45.681Z,732.9
2023-05-11T00:34:29.381Z,738.7
2023-05-11T00:36:13.085Z,736
2023-05-11T00:37:56.782Z,732.7
2023-05-11T00:39:40.483Z,728.2
2023-05-11T00:41:24.183Z,727.4
2023-05-11T00:43:07.877Z,726.2
2023-05-11T00:44:51.591Z,728.6
2023-05-11T00:46:35.296Z,733.1
2023-05-11T00:48:18.981Z,733.6
2023-05-11T00:50:02.694Z,734.3
2023-05-11T00:53:30.095Z,729.4
2023-05-11T00:55:13.790Z,731.7
2023-05-11T00:56:57.487Z,730.2
2023-05-11T00:58:41.207Z,727.3
2023-05-11T01:00:24.889Z,726.2
2023-05-11T01:02:08.605Z,731
2023-05-11T01:03:52.302Z,733.9
2023-05-11T01:05:36.002Z,733.1
2023-05-11T01:07:19.711Z,732.2
2023-05-11T01:09:03.416Z,735.2
2023-05-11T01:10:47.189Z,732.9
2023-05-11T01:12:30.810Z,731.5
2023-05-11T01:14:14.520Z,734.1
2023-05-11T01:15:58.211Z,735.5
2023-05-11T01:19:25.619Z,732.6
2023-05-11T01:21:09.326Z,731.9
2023-05-11T01:22:53.024Z,730.7
2023-05-11T01:24:36.726Z,729.2
2023-05-11T01:26:20.421Z,731.4
2023-05-11T01:28:04.123Z,728.7
2023-05-11T01:29:47.831Z,725.9
2023-05-11T01:31:31.534Z,724.8
2023-05-11T01:33:15.226Z,724.5
2023-05-11T01:34:58.932Z,727.6
2023-05-11T01:36:42.644Z,729.2
2023-05-11T01:38:26.332Z,725.2
2023-05-11T01:40:10.037Z,727.5
2023-05-11T01:41:53.737Z,728.7
2023-05-11T01:43:37.464Z,729.2
2023-05-11T01:45:21.139Z,729.4
2023-05-11T01:47:04.825Z,727.7
2023-05-11T01:48:48.565Z,727.3
2023-05-11T01:50:32.245Z,727.8
2023-05-11T01:52:15.940Z,731.7
2023-05-11T01:53:59.644Z,733.2
2023-05-11T01:55:43.345Z,737.4
2023-05-11T01:57:27.048Z,740
2023-05-11T01:59:10.763Z,740
2023-05-11T02:00:54.441Z,738.6
2023-05-11T02:02:38.147Z,738.9
2023-05-11T02:04:21.851Z,732.8
2023-05-11T02:06:05.552Z,733.7
2023-05-11T02:07:49.259Z,737.9
2023-05-11T02:09:32.948Z,740.4
2023-05-11T02:11:16.654Z,741.4
2023-05-11T02:13:00.355Z,741.1
2023-05-11T02:14:44.055Z,740.4
2023-05-11T02:16:27.756Z,738.6
2023-05-11T02:18:11.460Z,740.7
2023-05-11T02:19:55.169Z,738.7
2023-05-11T02:21:38.896Z,740.5
2023-05-11T02:23:22.570Z,740.9
2023-05-11T02:25:06.266Z,741.9
2023-05-11T02:28:33.664Z,748.6
2023-05-11T02:30:17.371Z,744.8
2023-05-11T02:32:01.068Z,740.6
2023-05-11T02:33:44.769Z,738.9
2023-05-11T02:35:28.472Z,734.2
2023-05-11T02:37:12.180Z,731.1
2023-05-11T02:38:55.872Z,730.6
2023-05-11T02:40:39.583Z,731.4
2023-05-11T02:42:23.288Z,735
2023-05-11T02:44:06.988Z,737.4
2023-05-11T02:45:50.700Z,736.4
2023-05-11T02:47:34.393Z,736.7
2023-05-11T02:49:18.091Z,735.1
2023-05-11T02:51:01.778Z,740
2023-05-11T02:52:45.494Z,740.1
2023-05-11T02:54:29.187Z,740.2
2023-05-11T02:56:12.890Z,742.9
2023-05-11T02:57:56.602Z,744.1
2023-05-11T02:59:40.300Z,741.9
2023-05-11T03:01:24.006Z,741.1
2023-05-11T03:03:07.745Z,741
2023-05-11T03:04:51.433Z,738.2
2023-05-11T03:06:35.113Z,738.6
2023-05-11T03:08:18.802Z,739.2
2023-05-11T03:10:02.508Z,735.5
2023-05-11T03:11:46.233Z,733.3
2023-05-11T03:13:29.907Z,735.6
2023-05-11T03:15:13.628Z,740.9
2023-05-11T03:16:57.308Z,742.1
2023-05-11T03:18:41.029Z,744.6
2023-05-11T03:20:24.739Z,745.2
2023-05-11T03:22:08.441Z,744.3
2023-05-11T03:23:52.147Z,743.7
2023-05-11T03:25:35.820Z,744.4
2023-05-11T03:27:19.534Z,748.7
2023-05-11T03:29:03.230Z,753.4
2023-05-11T03:30:46.926Z,752.6
2023-05-11T03:32:30.637Z,751.8
2023-05-11T03:34:14.336Z,751.7
2023-05-11T03:35:58.035Z,752.6
2023-05-11T03:37:41.740Z,755
2023-05-11T03:39:25.440Z,752.1
2023-05-11T03:41:09.136Z,746.6
2023-05-11T03:42:52.851Z,742.7
2023-05-11T03:44:36.685Z,749.2
2023-05-11T03:46:20.261Z,748.6
2023-05-11T03:48:03.962Z,747.8
2023-05-11T03:49:47.668Z,749.1
2023-05-11T03:51:31.395Z,749.6
2023-05-11T03:53:15.106Z,752.6
2023-05-11T03:54:58.773Z,756.1
2023-05-11T03:56:42.465Z,757.4
2023-05-11T03:58:26.167Z,753.7
2023-05-11T04:01:53.592Z,748.2
2023-05-11T04:03:37.267Z,749.3
2023-05-11T04:05:20.985Z,749.4
2023-05-11T04:07:04.666Z,749.7
2023-05-11T04:08:48.378Z,750.4
2023-05-11T04:10:32.090Z,749.4
2023-05-11T04:12:15.771Z,745.7
2023-05-11T04:13:59.480Z,744.7
2023-05-11T04:15:43.183Z,749.8
2023-05-11T04:17:26.886Z,746.1
2023-05-11T04:19:10.618Z,744.5
2023-05-11T04:20:54.287Z,743.4
2023-05-11T04:22:38.033Z,743
2023-05-11T04:24:21.716Z,743.2
2023-05-11T04:26:05.389Z,743.3
2023-05-11T04:27:49.094Z,743.5
2023-05-11T04:29:32.787Z,745
2023-05-11T04:31:16.502Z,745
2023-05-11T04:33:00.258Z,744.6
2023-05-11T04:34:43.889Z,741.8
2023-05-11T04:36:27.597Z,742.9
2023-05-11T04:38:11.302Z,750.3
2023-05-11T04:39:55.018Z,754.3
2023-05-11T04:41:38.745Z,750.9
2023-05-11T04:43:22.415Z,754.4
2023-05-11T04:45:06.120Z,755.1
2023-05-11T04:46:49.807Z,752.6
2023-05-11T04:48:33.514Z,749
2023-05-11T04:50:17.217Z,747.1
2023-05-11T04:53:44.620Z,745.1
2023-05-11T04:55:28.361Z,748
2023-05-11T04:57:12.017Z,752.5
2023-05-11T04:58:55.753Z,751.7
2023-05-11T05:00:39.426Z,752.3
2023-05-11T05:02:23.126Z,754.3
2023-05-11T05:04:06.825Z,758.6
2023-05-11T05:05:50.523Z,757.9
2023-05-11T05:07:34.236Z,756.6
2023-05-11T05:09:17.945Z,754.5
2023-05-11T05:11:01.633Z,749.2
2023-05-11T05:14:29.047Z,737.5
2023-05-11T05:16:12.737Z,731.2
2023-05-11T05:17:56.442Z,729.4
2023-05-11T05:19:40.139Z,724.7
2023-05-11T05:21:23.849Z,722.6
2023-05-11T05:23:07.560Z,722.9
2023-05-11T05:24:51.245Z,722
2023-05-11T05:26:34.955Z,720.1
2023-05-11T05:28:18.655Z,715.4
2023-05-11T05:30:02.359Z,709.1
2023-05-11T05:31:46.061Z,705.6
2023-05-11T05:33:29.768Z,700.8
2023-05-11T05:35:13.473Z,696.1
2023-05-11T05:36:57.165Z,689.6
2023-05-11T05:38:40.859Z,685.8
2023-05-11T05:40:24.574Z,683.5
2023-05-11T05:42:08.262Z,684.1
2023-05-11T05:43:51.978Z,677.9
2023-05-11T05:45:35.696Z,674.2
2023-05-11T05:47:19.395Z,675.4
2023-05-11T05:49:03.078Z,679.5
2023-05-11T05:50:46.779Z,681.5
2023-05-11T05:52:30.481Z,686.4
2023-05-11T05:54:14.186Z,690.7
2023-05-11T05:55:57.895Z,693.3
2023-05-11T05:57:41.586Z,693.3
2023-05-11T06:01:09.035Z,690.4
2023-05-11T06:02:52.681Z,689.1
2023-05-11T06:04:36.397Z,687.1
2023-05-11T06:06:20.090Z,682.3
2023-05-11T06:08:03.807Z,679.5
2023-05-11T06:09:47.506Z,678.3
2023-05-11T06:11:31.195Z,678.3
2023-05-11T06:13:14.897Z,673.1
2023-05-11T06:14:58.587Z,673.3
2023-05-11T06:16:42.347Z,671.3
2023-05-11T06:18:26.014Z,668
2023-05-11T06:20:09.741Z,667.1
2023-05-11T06:21:53.404Z,826.7
2023-05-11T06:25:20.815Z,947.1
2023-05-11T06:27:04.517Z,786
2023-05-11T06:28:48.212Z,804.5
2023-05-11T06:30:31.909Z,1001.1
2023-05-11T06:33:59.316Z,1098.6
2023-05-11T06:35:43.028Z,1086.9
2023-05-11T06:37:26.717Z,1073.6
2023-05-11T06:39:10.634Z,1037.9
2023-05-11T06:41:01.114Z,987.8
2023-05-11T06:42:37.960Z,914.4
2023-05-11T06:44:21.684Z,866.4
2023-05-11T06:46:05.233Z,862.7
2023-05-11T06:47:48.936Z,864.2
2023-05-11T06:49:32.632Z,873.8
2023-05-11T06:51:16.338Z,880.7
2023-05-11T06:53:00.041Z,883.8
2023-05-11T06:56:27.434Z,890.3
2023-05-11T06:58:11.144Z,876.9
2023-05-11T06:59:54.836Z,856.1
2023-05-11T07:01:38.545Z,842.5
2023-05-11T07:05:06.076Z,832.2
2023-05-11T07:06:49.679Z,829.1
2023-05-11T07:08:33.350Z,827.3
2023-05-11T07:10:24.120Z,827.5
2023-05-11T07:12:00.748Z,824.6
2023-05-11T07:13:44.446Z,825
2023-05-11T07:15:28.147Z,825.9
2023-05-11T07:17:11.890Z,825.9
2023-05-11T07:18:55.551Z,821
2023-05-11T07:20:39.268Z,813.6
2023-05-11T07:22:22.952Z,818.6
2023-05-11T07:24:06.658Z,848.9
2023-05-11T07:25:50.361Z,870.6
2023-05-11T07:29:17.766Z,839.6
2023-05-11T07:31:01.459Z,831
2023-05-11T07:32:45.171Z,828.8
2023-05-11T07:34:28.869Z,838.3
2023-05-11T07:37:56.466Z,881
2023-05-11T07:39:40.057Z,877.3
2023-05-11T07:41:23.673Z,877.3
2023-05-11T07:43:07.379Z,866.8
2023-05-11T07:44:51.068Z,849.3
2023-05-11T07:46:34.777Z,841.4
2023-05-11T07:48:18.485Z,844.1
2023-05-11T07:50:02.172Z,845
2023-05-11T07:51:45.909Z,846.1
2023-05-11T07:53:29.580Z,844.7
2023-05-11T07:55:13.403Z,841.2
2023-05-11T07:56:57.049Z,836.8
2023-05-11T07:58:40.683Z,835.1
2023-05-11T08:00:24.456Z,834.4
2023-05-11T08:02:08.158Z,834.2
2023-05-11T08:03:51.842Z,833.7
2023-05-11T08:05:35.604Z,834.8
2023-05-11T08:07:19.201Z,832.4
2023-05-11T08:09:02.933Z,829.4
2023-05-11T08:14:14.019Z,896.4
2023-05-11T08:15:57.797Z,874.4
2023-05-11T08:17:41.443Z,872.9
2023-05-11T08:19:25.140Z,875.4
2023-05-11T08:21:15.809Z,874
2023-05-11T08:22:52.515Z,878.1
2023-05-11T08:24:36.216Z,886.2
2023-05-11T08:26:19.924Z,888.9
2023-05-11T08:28:03.620Z,887.1
2023-05-11T08:29:47.339Z,883.2
2023-05-11T08:31:31.012Z,879.7
2023-05-11T08:33:14.724Z,880.6
2023-05-11T08:34:58.476Z,886.8
2023-05-11T08:36:42.157Z,883.2
2023-05-11T08:38:25.839Z,887.3
2023-05-11T08:40:09.514Z,887.1
2023-05-11T08:41:53.224Z,887.9
2023-05-11T08:43:36.959Z,885.7
2023-05-11T08:45:20.637Z,886.7
2023-05-11T08:47:04.347Z,885.9
2023-05-11T08:48:48.026Z,887.1
2023-05-11T08:50:31.748Z,891.5
2023-05-11T08:53:59.129Z,894.6
2023-05-11T08:55:42.833Z,897.5
2023-05-11T08:57:26.537Z,900.2
2023-05-11T08:59:10.242Z,906.3
2023-05-11T09:00:53.940Z,902.7
2023-05-11T09:02:37.645Z,902.9
2023-05-11T09:04:21.362Z,899.9
2023-05-11T09:06:05.053Z,898
2023-05-11T09:07:48.745Z,895.1
2023-05-11T09:09:32.490Z,893.9
2023-05-11T09:11:16.145Z,891.3
2023-05-11T09:12:59.852Z,889.4
2023-05-11T09:14:43.569Z,889.2
2023-05-11T09:16:27.256Z,900.1
2023-05-11T09:18:10.967Z,919.2
2023-05-11T09:21:38.360Z,948.6
2023-05-11T09:23:22.063Z,946.9
2023-05-11T09:26:49.472Z,937.8
2023-05-11T09:28:33.189Z,933.9
2023-05-11T09:30:16.880Z,927.5
2023-05-11T09:32:00.580Z,928
2023-05-11T09:33:44.269Z,926.5
2023-05-11T09:35:28.066Z,923.8
2023-05-11T09:37:11.807Z,919.5
2023-05-11T09:38:55.389Z,917.8
2023-05-11T09:40:39.084Z,918.8
2023-05-11T09:44:06.492Z,922.3
2023-05-11T09:47:33.942Z,918
2023-05-11T09:49:17.593Z,912.7
2023-05-11T09:52:44.989Z,907.7
2023-05-11T09:54:28.696Z,907.8
2023-05-11T09:56:12.394Z,906.9
2023-05-11T09:57:56.105Z,908.1
2023-05-11T09:59:39.816Z,907.9
2023-05-11T10:01:23.499Z,908.9
2023-05-11T10:03:07.218Z,908.1
2023-05-11T10:04:50.915Z,908.6
2023-05-11T10:06:34.614Z,911.5
2023-05-11T10:08:18.334Z,915
2023-05-11T10:10:02.024Z,915.4
2023-05-11T10:11:45.725Z,912.6
2023-05-11T10:13:29.598Z,910.1
2023-05-11T10:15:13.117Z,909.4
2023-05-11T10:16:56.830Z,907.2
2023-05-11T10:18:40.532Z,903.3
2023-05-11T10:20:24.228Z,899.1
2023-05-11T10:22:07.932Z,903.2
2023-05-11T10:25:35.346Z,906.7
2023-05-11T10:27:19.039Z,903.6
2023-05-11T10:29:02.749Z,1094.4
2023-05-11T10:30:46.453Z,1067.1
2023-05-11T10:32:30.145Z,1031.6
2023-05-11T10:34:13.847Z,967.2
2023-05-11T10:35:57.552Z,957.4
2023-05-11T10:37:41.244Z,959.9
2023-05-11T10:39:24.951Z,960.7
2023-05-11T10:41:08.648Z,953.3
2023-05-11T10:42:52.356Z,947.3
2023-05-11T10:44:36.071Z,957.7
2023-05-11T10:46:19.746Z,960.2
2023-05-11T10:48:03.448Z,956.9
2023-05-11T10:49:47.153Z,953.8
2023-05-11T10:51:30.866Z,951.9
2023-05-11T10:53:14.565Z,953.2
2023-05-11T10:54:58.265Z,952.7
2023-05-11T10:56:41.975Z,952.9
2023-05-11T10:58:25.674Z,956.3
2023-05-11T11:00:09.375Z,967.3
2023-05-11T11:01:53.084Z,986.2
2023-05-11T11:03:36.786Z,993
2023-05-11T11:05:20.479Z,998.9
2023-05-11T11:07:04.175Z,813
2023-05-11T11:08:47.879Z,713.7
2023-05-11T11:10:31.590Z,768.6
2023-05-11T11:12:15.360Z,900.4
2023-05-11T11:13:59.017Z,944.5
2023-05-11T11:15:42.720Z,957.6
2023-05-11T11:17:26.434Z,954
2023-05-11T11:19:10.103Z,947.7
2023-05-11T11:20:53.800Z,941
2023-05-11T11:22:37.496Z,939.2
2023-05-11T11:24:21.200Z,943.4
2023-05-11T11:26:04.905Z,946.5
2023-05-11T11:27:48.621Z,956.4
2023-05-11T11:31:16.004Z,973.3
2023-05-11T11:32:59.707Z,971.7
2023-05-11T11:34:43.415Z,963.3
2023-05-11T11:36:27.108Z,959.3
2023-05-11T11:38:10.830Z,952.2
2023-05-11T11:39:54.508Z,948.4
2023-05-11T11:41:38.211Z,944.2
2023-05-11T11:43:21.921Z,927.6
2023-05-11T11:45:05.616Z,917
2023-05-11T11:48:33.028Z,909.4
2023-05-11T11:50:16.727Z,906.7
2023-05-11T11:52:00.437Z,905.4
2023-05-11T11:53:44.130Z,900.5
2023-05-11T11:57:11.536Z,899.1
2023-05-11T12:00:38.938Z,908.2
2023-05-11T12:02:22.655Z,911
2023-05-11T12:04:06.338Z,909.3
2023-05-11T12:05:57.038Z,906.3
2023-05-11T12:07:33.751Z,902
2023-05-11T12:11:08.285Z,899.4
2023-05-11T12:12:44.966Z,899.8
2023-05-11T12:14:28.747Z,901.5
2023-05-11T12:16:12.268Z,905.3
2023-05-11T12:17:55.964Z,905.6
2023-05-11T12:19:39.675Z,903.3
2023-05-11T12:21:23.360Z,901.6
2023-05-11T12:23:07.071Z,903
2023-05-11T12:24:50.767Z,901.1
2023-05-11T12:26:34.633Z,899.1
2023-05-11T12:28:18.252Z,902.5
2023-05-11T12:30:01.876Z,903.4
2023-05-11T12:31:45.579Z,905
2023-05-11T12:33:29.295Z,902.4
2023-05-11T12:35:12.986Z,900.7
2023-05-11T12:38:40.400Z,900.1
2023-05-11T12:40:24.094Z,902.4
2023-05-11T12:42:07.802Z,904.6
2023-05-11T12:43:51.510Z,905.4
2023-05-11T12:45:35.202Z,904.2
2023-05-11T12:47:18.909Z,902.5
2023-05-11T12:49:02.601Z,903.2
2023-05-11T12:50:46.310Z,903.5
2023-05-11T12:52:30.012Z,895.9
2023-05-11T12:54:13.704Z,891.7
2023-05-11T12:55:57.413Z,892.8
2023-05-11T12:57:41.128Z,893.1
2023-05-11T12:59:24.824Z,894
2023-05-11T13:01:08.565Z,895.3
2023-05-11T13:02:52.227Z,898.9
2023-05-11T13:04:35.932Z,899.3
2023-05-11T13:06:19.633Z,901.7
2023-05-11T13:08:03.337Z,898.6
2023-05-11T13:09:47.051Z,896.3
2023-05-11T13:11:30.746Z,895.6
2023-05-11T13:13:14.445Z,897.6
2023-05-11T13:14:58.159Z,900.6
2023-05-11T13:16:41.840Z,901.9
2023-05-11T13:18:25.548Z,895.6
2023-05-11T13:20:09.247Z,898.5
2023-05-11T13:21:52.971Z,899.5
2023-05-11T13:23:36.659Z,900.6
2023-05-11T13:25:20.350Z,899.7
2023-05-11T13:27:04.058Z,899.4
2023-05-11T13:28:47.759Z,900.3
2023-05-11T13:30:31.460Z,899.4
2023-05-11T13:32:15.163Z,896
2023-05-11T13:33:58.856Z,893.8
2023-05-11T13:37:26.276Z,891.3
2023-05-11T13:39:09.964Z,887.9
2023-05-11T13:40:53.673Z,886.5
2023-05-11T13:42:37.374Z,884.4
2023-05-11T13:44:21.077Z,888
2023-05-11T13:46:04.779Z,887.2
2023-05-11T13:47:48.484Z,887.2
2023-05-11T13:49:32.233Z,884.1
2023-05-11T13:51:15.954Z,883.2
2023-05-11T13:52:59.608Z,879.4
2023-05-11T13:54:43.348Z,874.2
2023-05-11T13:56:27.029Z,871.5
2023-05-11T13:58:10.700Z,873.4
2023-05-11T13:59:54.434Z,875
2023-05-11T14:03:21.817Z,871.6
2023-05-11T14:05:05.507Z,870.9
2023-05-11T14:06:49.199Z,868.9
2023-05-11T14:08:32.904Z,869.6
2023-05-11T14:12:00.317Z,869.8
2023-05-11T14:13:44.057Z,875.6
2023-05-11T14:15:27.724Z,879.5
2023-05-11T14:17:11.423Z,881.9
2023-05-11T14:19:02.125Z,883.4
2023-05-11T14:20:38.838Z,887.8
2023-05-11T14:22:22.531Z,884.4
2023-05-11T14:24:06.227Z,890
2023-05-11T14:27:33.668Z,896.4
2023-05-11T14:29:17.345Z,894.3
2023-05-11T14:31:01.042Z,893.1
2023-05-11T14:32:44.741Z,890.5
2023-05-11T14:34:28.440Z,889.1
2023-05-11T14:36:12.156Z,890.1
2023-05-11T14:37:55.920Z,886.8
2023-05-11T14:39:39.566Z,885.7
2023-05-11T14:41:30.267Z,883.4
2023-05-11T14:43:06.967Z,883.2
2023-05-11T14:44:50.662Z,885.9
2023-05-11T14:46:34.362Z,884.1
2023-05-11T14:48:18.068Z,882.6
2023-05-11T14:50:01.764Z,882.5
2023-05-11T14:51:45.472Z,883.1
2023-05-11T14:53:29.191Z,887.4
2023-05-11T14:55:12.888Z,890.7
2023-05-11T14:56:56.574Z,892.2
2023-05-11T14:58:40.272Z,889.9
2023-05-11T15:00:23.984Z,889.8
2023-05-11T15:02:07.819Z,889.1
2023-05-11T15:07:18.796Z,895.7
2023-05-11T15:09:02.630Z,893.1
2023-05-11T15:10:53.185Z,897.6
2023-05-11T15:12:29.953Z,900.5
2023-05-11T15:14:13.609Z,903
2023-05-11T15:15:57.384Z,905.7
2023-05-11T15:17:48.032Z,908.9
2023-05-11T15:19:31.705Z,906.7
2023-05-11T15:21:08.416Z,907.6
2023-05-11T15:24:35.867Z,912.6
2023-05-11T15:26:26.557Z,913.1
2023-05-11T15:28:03.248Z,916.1
2023-05-11T15:29:47.111Z,917.6
2023-05-11T15:31:30.692Z,918.6
2023-05-11T15:33:14.497Z,911
2023-05-11T15:34:58.179Z,913.6
2023-05-11T15:36:41.770Z,911.7
2023-05-11T15:38:25.437Z,912.3
2023-05-11T15:40:16.128Z,911.3
2023-05-11T15:41:52.830Z,908.6
2023-05-11T15:43:36.541Z,902.2
2023-05-11T15:45:20.336Z,904.4
2023-05-11T15:48:47.644Z,936.8
2023-05-11T15:50:45.372Z,954.8
2023-05-11T15:52:15.071Z,960.7
2023-05-11T15:53:58.758Z,961.4
2023-05-11T15:55:42.455Z,963.8
2023-05-11T15:57:26.151Z,958.1
2023-05-11T15:59:09.875Z,657.8
2023-05-11T16:00:53.558Z,589.9
2023-05-11T16:02:37.258Z,599
2023-05-11T16:04:20.959Z,739.8
2023-05-11T16:06:04.712Z,775.5
2023-05-11T16:07:48.369Z,868.1
2023-05-11T16:09:32.067Z,633.3
2023-05-11T16:11:15.858Z,534.1
2023-05-11T16:12:59.519Z,489.7
2023-05-11T16:14:43.173Z,461.2
2023-05-11T16:16:26.863Z,453.3
2023-05-11T16:18:10.569Z,441.9
2023-05-11T16:19:54.333Z,432.2
2023-05-11T16:21:37.967Z,426.3
2023-05-11T16:23:21.672Z,425.9
2023-05-11T16:25:05.375Z,416.6
2023-05-11T16:26:49.076Z,410.7
2023-05-11T16:28:32.797Z,404.7
2023-05-11T16:30:16.475Z,404.9
2023-05-11T16:32:00.216Z,406.6
2023-05-11T16:33:43.927Z,411.6
2023-05-11T16:35:27.601Z,413.1
2023-05-11T16:37:11.313Z,410
2023-05-11T16:38:54.998Z,406.5
2023-05-11T16:40:38.699Z,404.7
2023-05-11T16:42:22.400Z,402.7
2023-05-11T16:44:06.096Z,398.4
2023-05-11T16:45:49.814Z,396.3
2023-05-11T16:47:33.501Z,396.4
2023-05-11T16:49:17.231Z,397.7
2023-05-11T16:51:00.903Z,394.9
2023-05-11T16:52:44.595Z,393.7
2023-05-11T16:54:28.300Z,393
2023-05-11T16:56:12.037Z,392.1
2023-05-11T16:57:55.710Z,392.3
2023-05-11T16:59:39.419Z,394.8
2023-05-11T17:01:23.112Z,397.1
2023-05-11T17:03:06.883Z,395
2023-05-11T17:04:50.518Z,393.6
2023-05-11T17:06:34.216Z,394
2023-05-11T17:08:17.913Z,396.6
2023-05-11T17:10:01.620Z,397.9
2023-05-11T17:16:56.428Z,403.8
2023-05-11T17:18:40.137Z,404.4
2023-05-11T17:20:23.843Z,405.2
2023-05-11T17:22:14.550Z,412.5
2023-05-11T17:23:51.254Z,419.7
2023-05-11T17:25:34.937Z,428.2
2023-05-11T17:27:18.638Z,475.9
2023-05-11T17:29:02.342Z,494.7
2023-05-11T17:30:46.057Z,500.8
2023-05-11T17:34:13.470Z,494.2
2023-05-11T17:35:57.140Z,490.1
2023-05-11T17:39:24.569Z,489.8
2023-05-11T17:41:08.250Z,489.7
2023-05-11T17:42:51.960Z,487.6
2023-05-11T17:44:35.659Z,484.6
2023-05-11T17:49:46.761Z,478.8
2023-05-11T17:51:30.463Z,475.5
2023-05-11T17:53:14.212Z,475.5
2023-05-11T17:55:04.871Z,479.3
2023-05-11T17:56:41.570Z,478.8
2023-05-11T17:58:25.275Z,478.2
2023-05-11T18:00:08.961Z,476.6
2023-05-11T18:01:59.674Z,477
2023-05-11T18:03:36.379Z,477.6
2023-05-11T18:05:20.082Z,476.6
2023-05-11T18:07:03.793Z,475.9
2023-05-11T18:08:47.481Z,476.7
2023-05-11T18:13:58.588Z,478.6
2023-05-11T18:15:42.291Z,479.8
2023-05-11T18:17:26.021Z,481.2
2023-05-11T18:19:09.700Z,481.9
2023-05-11T18:20:53.418Z,482.3
2023-05-11T18:22:37.097Z,483
2023-05-11T18:24:20.800Z,481.3
2023-05-11T18:26:04.504Z,476.8
2023-05-11T18:27:48.203Z,478.8
2023-05-11T18:29:31.942Z,478.3
2023-05-11T18:31:15.613Z,477.9
2023-05-11T18:33:06.304Z,479.6
2023-05-11T18:34:43.024Z,480.5
2023-05-11T18:36:26.736Z,480.8
2023-05-11T18:38:10.418Z,483.7
2023-05-11T18:39:54.123Z,484.7
2023-05-11T18:41:37.824Z,485.6
2023-05-11T18:43:21.515Z,483.8
2023-05-11T18:50:16.329Z,486.6
2023-05-11T18:53:43.745Z,483.5
2023-05-11T18:55:27.438Z,479.9
2023-05-11T18:58:54.856Z,485.4
2023-05-11T19:04:05.964Z,484.4
2023-05-11T19:12:44.605Z,479.9
2023-05-11T19:14:28.216Z,480.7
2023-05-11T19:16:11.871Z,483.7
2023-05-11T19:18:02.596Z,484.2
2023-05-11T19:19:53.334Z,487.3
2023-05-11T19:21:23.136Z,486.9
2023-05-11T19:23:06.667Z,482.3
2023-05-11T19:24:57.389Z,479.7
2023-05-11T19:26:41.153Z,477.7
2023-05-11T19:28:17.767Z,476.4
2023-05-11T19:30:01.542Z,479.9
2023-05-11T19:31:45.352Z,481.9
2023-05-11T19:33:28.938Z,485.8
2023-05-11T19:35:12.583Z,491.6
2023-05-11T19:36:56.321Z,493
2023-05-11T19:38:39.988Z,511.2
2023-05-11T19:42:07.466Z,514.7
2023-05-11T19:43:51.090Z,516.6
2023-05-11T19:45:34.827Z,514.2
2023-05-11T19:47:18.583Z,507
2023-05-11T19:50:45.910Z,500.5
2023-05-11T19:55:56.991Z,502.7
2023-05-11T19:57:40.690Z,505.4
2023-05-11T19:59:24.484Z,505.5
2023-05-11T20:04:35.571Z,506.1
2023-05-11T20:06:19.297Z,503.5
2023-05-11T20:08:02.905Z,500.9
2023-05-11T20:09:46.772Z,498.3
2023-05-11T20:11:30.425Z,497.9
2023-05-11T20:13:14.077Z,500.3
2023-05-11T20:14:57.753Z,500.6
2023-05-11T20:16:41.547Z,502
2023-05-11T20:18:25.133Z,500.8
2023-05-11T20:20:08.805Z,501.3
2023-05-11T20:21:52.551Z,503.9
2023-05-11T20:23:36.222Z,505.8
2023-05-11T20:25:19.983Z,505.4
2023-05-11T20:28:47.350Z,502.7
2023-05-11T20:30:31.030Z,500.9
2023-05-11T20:39:09.529Z,502.9
2023-05-11T20:42:36.944Z,509.2
2023-05-11T20:46:04.356Z,569.1
2023-05-11T20:49:31.740Z,568
2023-05-11T20:52:59.148Z,559
2023-05-11T20:56:26.596Z,551.8
2023-05-11T20:58:10.273Z,549.9
2023-05-11T21:01:37.722Z,554.6
2023-05-11T21:03:21.359Z,553.5
2023-05-11T21:05:05.095Z,553.4
2023-05-11T21:06:48.761Z,552.4
2023-05-11T21:08:32.564Z,546.7
2023-05-11T21:10:16.233Z,552.8
2023-05-11T21:11:59.861Z,560.4
2023-05-11T21:13:43.571Z,560.2
2023-05-11T21:15:27.274Z,561.6
2023-05-11T21:17:10.969Z,561.8
2023-05-11T21:19:01.683Z,559.4
2023-05-11T21:20:38.379Z,560.8
2023-05-11T21:22:22.066Z,558.6
2023-05-11T21:24:05.784Z,564.6
2023-05-11T21:25:49.477Z,565.8
2023-05-11T21:27:33.182Z,569.3
2023-05-11T21:29:16.882Z,577.5
2023-05-11T21:31:00.577Z,584.4
2023-05-11T21:32:44.282Z,587.9
2023-05-11T21:34:27.985Z,592
2023-05-11T21:36:11.677Z,597.4
2023-05-11T21:37:55.383Z,596.9
2023-05-11T21:39:39.081Z,598.1
2023-05-11T21:41:22.802Z,597.9
2023-05-11T21:43:06.484Z,600.2
2023-05-11T21:44:50.191Z,603.2
2023-05-11T21:46:33.884Z,605.9
2023-05-11T21:48:17.598Z,607.1
2023-05-11T21:50:01.284Z,606.5
2023-05-11T21:51:44.991Z,605.7
2023-05-11T21:53:28.715Z,609.3
2023-05-11T21:55:12.401Z,616.8
2023-05-11T21:56:56.108Z,619.6
2023-05-11T21:58:39.802Z,623.8
2023-05-11T22:00:23.525Z,621.8
2023-05-11T22:02:07.210Z,622.9
2023-05-11T22:03:50.918Z,629.4
2023-05-11T22:05:34.612Z,631.4
2023-05-11T22:07:18.316Z,630.6
2023-05-11T22:09:02.022Z,630.3
2023-05-11T22:10:45.754Z,631.6
2023-05-11T22:12:29.430Z,633.2
2023-05-11T22:14:13.126Z,633.7
2023-05-11T22:15:56.822Z,634
2023-05-11T22:17:40.528Z,631
2023-05-11T22:21:07.933Z,629.5
2023-05-11T22:22:51.617Z,628.4
2023-05-11T22:24:35.364Z,626.3
2023-05-11T22:26:19.034Z,628.6
2023-05-11T22:28:02.735Z,626.8
2023-05-11T22:29:46.534Z,626.6
2023-05-11T22:31:30.198Z,628.4
2023-05-11T22:33:13.937Z,631.4
2023-05-11T22:34:57.540Z,640.2
2023-05-11T22:36:41.229Z,651.2
2023-05-11T22:38:24.940Z,649.3
2023-05-11T22:40:08.629Z,649.3
2023-05-11T22:41:52.336Z,649.4
2023-05-11T22:43:36.038Z,646.8
2023-05-11T22:45:19.737Z,645.2
2023-05-11T22:47:03.450Z,648.1
2023-05-11T22:48:47.143Z,656.3
2023-05-11T22:50:30.831Z,653.5
2023-05-11T22:52:14.546Z,651.7
2023-05-11T22:53:58.248Z,651.4
2023-05-11T22:55:41.946Z,651.4
2023-05-11T22:57:25.648Z,649.7
2023-05-11T22:59:09.362Z,648.2
2023-05-11T23:00:53.054Z,646.4
2023-05-11T23:02:36.762Z,644.6
2023-05-11T23:04:20.459Z,648.4
2023-05-11T23:06:04.157Z,650.5
2023-05-11T23:07:47.864Z,651.8
2023-05-11T23:09:31.583Z,654
2023-05-11T23:11:15.269Z,667.7
2023-05-11T23:12:58.977Z,688.1
2023-05-11T23:14:42.672Z,715
2023-05-11T23:16:26.385Z,720.3
2023-05-11T23:18:10.072Z,712.2
2023-05-11T23:19:53.784Z,710
2023-05-11T23:21:37.502Z,712
2023-05-11T23:23:21.243Z,714
2023-05-11T23:25:04.878Z,713.8
2023-05-11T23:28:32.284Z,703.7
2023-05-11T23:30:16.027Z,702.1
2023-05-11T23:31:59.690Z,702.5
2023-05-11T23:33:43.399Z,702.6
2023-05-11T23:37:10.786Z,701.2
2023-05-11T23:38:54.491Z,705.2
2023-05-11T23:40:38.213Z,704.2
2023-05-11T23:42:21.889Z,703.1
2023-05-11T23:44:05.602Z,700.1
2023-05-11T23:45:49.317Z,698.7
2023-05-11T23:47:33.005Z,696.3
2023-05-11T23:49:16.723Z,699.3
2023-05-11T23:51:00.399Z,698.7
2023-05-11T23:52:44.102Z,697.8
2023-05-11T23:54:27.843Z,703.7
2023-05-11T23:56:11.499Z,701.3
2023-05-11T23:57:55.212Z,699.5
2023-05-11T23:59:38.908Z,700
